createdAt,value
2022-08-07T00:02:35.272Z,22.80
2022-08-07T00:04:46.020Z,22.86
2022-08-07T00:07:50.671Z,22.80
2022-08-07T00:11:06.452Z,22.40
2022-08-07T00:14:09.041Z,22.31
2022-08-07T00:17:13.968Z,22.29
2022-08-07T00:20:29.725Z,22.43
2022-08-07T00:23:40.227Z,22.59
2022-08-07T00:26:58.609Z,22.64
2022-08-07T00:30:05.244Z,22.58
2022-08-07T00:33:29.986Z,22.44
2022-08-07T00:36:43.258Z,22.43
2022-08-07T00:39:54.479Z,22.38
2022-08-07T00:42:58.006Z,22.30
2022-08-07T00:46:03.704Z,22.39
2022-08-07T00:49:07.351Z,22.19
2022-08-07T00:52:11.132Z,22.42
2022-08-07T00:55:17.463Z,22.45
2022-08-07T00:58:28.402Z,22.67
2022-08-07T01:01:41.486Z,22.40
2022-08-07T01:04:47.803Z,22.36
2022-08-07T01:07:51.435Z,22.55
2022-08-07T01:10:56.531Z,22.63
2022-08-07T01:14:01.797Z,22.62
2022-08-07T01:17:07.297Z,22.51
2022-08-07T01:20:17.149Z,22.50
2022-08-07T01:23:21.114Z,22.59
2022-08-07T01:26:38.927Z,22.64
2022-08-07T01:29:43.078Z,22.75
2022-08-07T01:32:46.049Z,22.75
2022-08-07T01:35:53.686Z,22.60
2022-08-07T01:38:59.060Z,22.67
2022-08-07T01:42:37.066Z,22.73
2022-08-07T01:45:37.032Z,22.51
2022-08-07T01:48:47.504Z,22.70
2022-08-07T01:52:02.656Z,22.72
2022-08-07T01:55:10.852Z,22.78
2022-08-07T01:58:33.175Z,22.89
2022-08-07T02:02:02.761Z,22.58
2022-08-07T02:05:15.966Z,22.72
2022-08-07T02:08:42.368Z,22.74
2022-08-07T02:12:04.254Z,22.76
2022-08-07T02:15:10.324Z,22.76
2022-08-07T02:18:14.954Z,22.77
2022-08-07T02:21:22.363Z,22.85
2022-08-07T02:24:26.119Z,22.98
2022-08-07T02:27:34.838Z,23.08
2022-08-07T02:30:39.596Z,22.95
2022-08-07T02:34:01.896Z,22.90
2022-08-07T02:37:10.506Z,22.88
2022-08-07T02:40:30.996Z,22.83
2022-08-07T02:43:41.133Z,22.96
2022-08-07T02:46:52.545Z,22.99
2022-08-07T02:50:05.344Z,22.98
2022-08-07T02:53:15.239Z,22.99
2022-08-07T02:56:22.450Z,23.01
2022-08-07T02:59:27.785Z,22.99
2022-08-07T03:02:33.886Z,23.10
2022-08-07T03:05:38.823Z,23.07
2022-08-07T03:08:44.946Z,22.83
2022-08-07T03:11:52.596Z,22.84
2022-08-07T03:15:07.515Z,22.94
2022-08-07T03:18:17.553Z,22.81
2022-08-07T03:21:24.519Z,22.92
2022-08-07T03:24:28.441Z,22.99
2022-08-07T03:27:59.074Z,23.28
2022-08-07T03:31:16.898Z,23.14
2022-08-07T03:34:22.122Z,23.05
2022-08-07T03:37:28.430Z,23.16
2022-08-07T03:40:37.454Z,23.14
2022-08-07T03:43:57.107Z,23.11
2022-08-07T03:47:11.031Z,23.06
2022-08-07T03:50:23.040Z,23.01
2022-08-07T03:54:01.662Z,23.00
2022-08-07T03:57:03.561Z,23.00
2022-08-07T04:00:12.191Z,23.01
2022-08-07T04:03:18.227Z,23.05
2022-08-07T04:06:38.089Z,23.12
2022-08-07T04:09:50.447Z,22.83
2022-08-07T04:12:55.496Z,22.96
2022-08-07T04:15:59.165Z,23.01
2022-08-07T04:19:12.739Z,22.88
2022-08-07T04:22:19.646Z,22.83
2022-08-07T04:25:29.109Z,22.86
2022-08-07T04:28:34.736Z,22.90
2022-08-07T04:32:03.313Z,23.07
2022-08-07T04:35:07.172Z,22.88
2022-08-07T04:38:15.508Z,23.03
2022-08-07T04:41:19.195Z,22.96
2022-08-07T04:44:23.889Z,23.08
2022-08-07T04:47:56.989Z,22.97
2022-08-07T04:51:32.175Z,23.12
2022-08-07T04:54:52.712Z,23.00
2022-08-07T04:58:31.613Z,22.99
2022-08-07T05:01:58.562Z,23.07
2022-08-07T05:05:53.929Z,22.98
2022-08-07T05:09:10.883Z,23.20
2022-08-07T05:12:27.228Z,23.03
2022-08-07T05:15:39.156Z,23.05
2022-08-07T05:19:02.110Z,23.20
2022-08-07T05:22:08.547Z,23.16
2022-08-07T05:25:25.752Z,23.07
2022-08-07T05:28:48.762Z,23.22
2022-08-07T05:31:55.860Z,23.00
2022-08-07T05:35:03.521Z,22.11
2022-08-07T05:38:11.887Z,22.14
2022-08-07T05:41:18.356Z,22.31
2022-08-07T05:44:29.535Z,22.51
2022-08-07T05:47:38.271Z,22.57
2022-08-07T05:51:01.162Z,22.60
2022-08-07T05:54:09.488Z,22.75
2022-08-07T05:57:37.794Z,22.79
2022-08-07T06:00:46.354Z,22.17
2022-08-07T06:03:58.630Z,22.15
2022-08-07T06:07:06.088Z,22.10
2022-08-07T06:10:15.361Z,22.28
2022-08-07T06:14:10.897Z,22.66
2022-08-07T06:16:50.725Z,23.11
2022-08-07T06:20:03.974Z,22.89
2022-08-07T06:23:46.826Z,22.87
2022-08-07T06:26:33.696Z,22.45
2022-08-07T06:29:38.838Z,23.03
2022-08-07T06:32:44.686Z,22.96
2022-08-07T06:36:13.025Z,22.98
2022-08-07T06:40:15.756Z,23.02
2022-08-07T06:42:43.395Z,23.28
2022-08-07T06:45:50.568Z,23.20
2022-08-07T06:48:57.094Z,23.51
2022-08-07T06:52:07.561Z,23.04
2022-08-07T06:55:32.639Z,23.11
2022-08-07T07:00:12.146Z,23.53
2022-08-07T07:02:48.943Z,23.52
2022-08-07T07:06:02.626Z,23.52
2022-08-07T07:09:31.083Z,23.61
2022-08-07T07:12:48.535Z,23.83
2022-08-07T07:16:01.063Z,24.10
2022-08-07T07:19:11.528Z,24.44
2022-08-07T07:22:36.639Z,24.25
2022-08-07T07:26:32.254Z,24.30
2022-08-07T07:29:39.147Z,24.75
2022-08-07T07:32:47.047Z,24.92
2022-08-07T07:36:05.241Z,24.93
2022-08-07T07:39:17.488Z,24.24
2022-08-07T07:42:25.796Z,24.95
2022-08-07T07:46:37.635Z,25.29
2022-08-07T07:49:09.109Z,25.45
2022-08-07T07:52:30.233Z,25.37
2022-08-07T07:55:37.775Z,25.50
2022-08-07T07:58:50.617Z,25.32
2022-08-07T08:02:03.651Z,25.27
2022-08-07T08:05:14.449Z,25.22
2022-08-07T08:08:35.776Z,24.90
2022-08-07T08:11:59.149Z,24.91
2022-08-07T08:15:07.096Z,24.82
2022-08-07T08:18:17.392Z,25.01
2022-08-07T08:21:55.673Z,24.61
2022-08-07T08:25:27.050Z,25.01
2022-08-07T08:28:46.165Z,24.94
2022-08-07T08:31:58.609Z,25.05
2022-08-07T08:35:19.467Z,24.66
2022-08-07T08:38:41.253Z,24.75
2022-08-07T08:42:00.362Z,25.04
2022-08-07T08:45:58.892Z,24.90
2022-08-07T08:49:33.009Z,24.99
2022-08-07T08:52:54.284Z,25.02
2022-08-07T08:56:08.570Z,25.26
2022-08-07T08:59:17.830Z,25.09
2022-08-07T09:02:37.748Z,25.33
2022-08-07T09:06:04.165Z,25.46
2022-08-07T09:09:21.128Z,25.54
2022-08-07T09:12:33.084Z,25.42
2022-08-07T09:16:20.494Z,25.85
2022-08-07T09:19:53.503Z,26.00
2022-08-07T09:24:34.198Z,26.50
2022-08-07T09:27:08.981Z,26.47
2022-08-07T09:30:14.066Z,26.45
2022-08-07T09:33:40.928Z,25.93
2022-08-07T09:37:13.112Z,26.33
2022-08-07T09:40:25.545Z,26.15
2022-08-07T09:44:05.525Z,26.10
2022-08-07T09:47:49.987Z,26.01
2022-08-07T09:52:10.450Z,26.01
2022-08-07T09:54:46.903Z,26.02
2022-08-07T09:58:11.580Z,26.14
2022-08-07T10:01:51.276Z,27.47
2022-08-07T10:05:13.885Z,28.55
2022-08-07T10:08:49.459Z,26.99
2022-08-07T10:12:21.816Z,27.45
2022-08-07T10:15:49.827Z,26.65
2022-08-07T10:19:17.893Z,27.51
2022-08-07T10:22:43.281Z,29.03
2022-08-07T10:26:24.611Z,28.45
2022-08-07T10:30:12.430Z,28.66
2022-08-07T10:34:06.797Z,29.11
2022-08-07T10:38:00.669Z,29.99
2022-08-07T10:41:45.998Z,28.50
2022-08-07T10:45:45.422Z,29.46
2022-08-07T10:49:16.548Z,29.03
2022-08-07T10:52:54.600Z,28.89
2022-08-07T10:56:20.957Z,29.10
2022-08-07T11:00:04.151Z,29.42
2022-08-07T11:03:17.233Z,29.37
2022-08-07T11:06:30.948Z,29.72
2022-08-07T11:10:07.187Z,30.34
2022-08-07T11:14:46.242Z,30.61
2022-08-07T11:17:01.929Z,31.51
2022-08-07T11:20:17.050Z,31.58
2022-08-07T11:23:38.714Z,31.93
2022-08-07T11:26:55.874Z,31.48
2022-08-07T11:30:17.544Z,31.43
2022-08-07T11:33:54.244Z,30.89
2022-08-07T11:37:12.859Z,29.15
2022-08-07T11:40:41.177Z,29.74
2022-08-07T11:44:18.433Z,31.43
2022-08-07T11:47:39.126Z,31.68
2022-08-07T11:51:09.833Z,31.13
2022-08-07T11:54:55.666Z,31.41
2022-08-07T11:58:16.269Z,30.29
2022-08-07T12:02:17.745Z,30.42
2022-08-07T12:05:41.466Z,30.06
2022-08-07T12:09:23.418Z,32.02
2022-08-07T12:12:36.560Z,31.80
2022-08-07T12:16:05.942Z,31.83
2022-08-07T12:19:21.209Z,31.03
2022-08-07T12:22:47.277Z,30.46
2022-08-07T12:26:23.381Z,30.16
2022-08-07T12:29:44.437Z,30.23
2022-08-07T12:33:01.997Z,30.51
2022-08-07T12:36:17.583Z,30.80
2022-08-07T12:39:42.332Z,30.48
2022-08-07T12:42:55.159Z,30.91
2022-08-07T12:46:12.228Z,30.25
2022-08-07T12:49:48.559Z,29.83
2022-08-07T12:53:17.686Z,30.04
2022-08-07T12:56:39.570Z,30.64
2022-08-07T12:59:54.868Z,30.89
2022-08-07T13:03:26.948Z,30.20
2022-08-07T13:06:54.317Z,29.81
2022-08-07T13:10:39.231Z,29.93
2022-08-07T13:14:03.181Z,30.14
2022-08-07T13:17:40.004Z,30.17
2022-08-07T13:20:59.126Z,30.60
2022-08-07T13:24:11.476Z,30.72
2022-08-07T13:27:21.369Z,30.41
2022-08-07T13:30:40.544Z,30.86
2022-08-07T13:34:30.879Z,30.79
2022-08-07T13:37:38.352Z,30.86
2022-08-07T13:41:17.344Z,30.46
2022-08-07T13:44:34.484Z,30.63
2022-08-07T13:48:07.613Z,30.57
2022-08-07T13:51:26.984Z,30.57
2022-08-07T13:54:33.407Z,30.18
2022-08-07T13:57:40.260Z,30.16
2022-08-07T14:01:20.409Z,30.25
2022-08-07T14:04:29.682Z,29.71
2022-08-07T14:08:00.231Z,30.47
2022-08-07T14:11:15.108Z,30.46
2022-08-07T14:14:28.440Z,30.48
2022-08-07T14:18:15.936Z,30.71
2022-08-07T14:21:21.181Z,30.27
2022-08-07T14:24:41.662Z,29.81
2022-08-07T14:28:12.173Z,30.20
2022-08-07T14:31:13.895Z,30.06
2022-08-07T14:34:27.171Z,30.31
2022-08-07T14:37:39.085Z,30.47
2022-08-07T14:40:49.447Z,29.94
2022-08-07T14:43:58.902Z,30.24
2022-08-07T14:47:16.438Z,30.50
2022-08-07T14:50:22.620Z,30.35
2022-08-07T14:54:05.959Z,30.21
2022-08-07T14:56:58.707Z,30.04
2022-08-07T15:00:09.013Z,30.17
2022-08-07T15:03:19.130Z,30.24
2022-08-07T15:06:25.960Z,30.13
2022-08-07T15:13:05.673Z,29.97
2022-08-07T15:16:14.680Z,29.98
2022-08-07T15:20:30.984Z,29.86
2022-08-07T15:22:53.999Z,30.15
2022-08-07T15:25:59.002Z,29.63
2022-08-07T15:30:08.694Z,29.79
2022-08-07T15:32:39.866Z,30.01
2022-08-07T15:39:24.608Z,29.76
2022-08-07T15:46:32.284Z,29.87
2022-08-07T15:53:14.518Z,29.49
2022-08-07T15:56:19.762Z,29.67
2022-08-07T15:59:39.736Z,29.55
2022-08-07T16:02:53.625Z,29.69
2022-08-07T16:05:59.460Z,29.48
2022-08-07T16:09:12.708Z,29.48
2022-08-07T16:13:01.115Z,29.42
2022-08-07T16:16:42.906Z,29.47
2022-08-07T16:20:03.825Z,29.57
2022-08-07T16:23:53.125Z,29.58
2022-08-07T16:27:01.168Z,29.67
2022-08-07T16:30:30.767Z,29.57
2022-08-07T16:34:07.412Z,29.52
2022-08-07T16:38:09.234Z,29.50
2022-08-07T16:40:57.137Z,29.46
2022-08-07T16:44:53.759Z,29.46
2022-08-07T16:47:51.627Z,29.42
2022-08-07T16:52:01.989Z,29.46
2022-08-07T16:55:03.129Z,29.36
2022-08-07T16:59:02.429Z,29.32
2022-08-07T17:02:51.486Z,29.37
2022-08-07T17:06:41.089Z,29.23
2022-08-07T17:10:32.596Z,29.16
2022-08-07T17:14:18.055Z,29.14
2022-08-07T17:17:23.587Z,29.13
2022-08-07T17:20:37.960Z,29.18
2022-08-07T17:23:53.611Z,29.04
2022-08-07T17:27:08.820Z,29.09
2022-08-07T17:30:20.083Z,29.01
2022-08-07T17:34:08.678Z,29.03
2022-08-07T17:38:06.077Z,28.92
2022-08-07T17:40:42.748Z,28.83
2022-08-07T17:44:08.317Z,28.88
2022-08-07T17:47:38.224Z,28.84
2022-08-07T17:51:01.554Z,28.69
2022-08-07T17:54:29.875Z,28.64
2022-08-07T17:57:58.473Z,28.72
2022-08-07T18:01:21.244Z,28.70
2022-08-07T18:04:34.556Z,28.70
2022-08-07T18:07:43.789Z,28.64
2022-08-07T18:12:06.193Z,28.64
2022-08-07T18:14:45.110Z,28.61
2022-08-07T18:18:46.658Z,28.66
2022-08-07T18:22:02.743Z,28.49
2022-08-07T18:25:19.129Z,28.28
2022-08-07T18:28:58.638Z,28.18
2022-08-07T18:32:17.209Z,28.15
2022-08-07T18:36:06.024Z,27.82
2022-08-07T18:40:05.152Z,27.85
2022-08-07T18:42:50.115Z,27.74
2022-08-07T18:46:25.947Z,27.51
2022-08-07T18:50:32.679Z,27.49
2022-08-07T18:53:18.709Z,27.34
2022-08-07T18:57:23.448Z,27.27
2022-08-07T19:00:34.095Z,27.01
2022-08-07T19:04:00.227Z,26.86
2022-08-07T19:07:10.971Z,26.88
2022-08-07T19:10:22.873Z,26.68
2022-08-07T19:13:56.603Z,26.75
2022-08-07T19:17:11.601Z,26.52
2022-08-07T19:20:29.683Z,26.32
2022-08-07T19:23:58.287Z,26.36
2022-08-07T19:28:29.161Z,26.20
2022-08-07T19:31:06.042Z,25.97
2022-08-07T19:34:14.669Z,25.99
2022-08-07T19:37:56.447Z,25.79
2022-08-07T19:41:00.778Z,25.89
2022-08-07T19:44:04.852Z,25.74
2022-08-07T19:47:36.367Z,25.68
2022-08-07T19:50:45.678Z,25.38
2022-08-07T19:54:34.783Z,25.45
2022-08-07T19:58:01.975Z,25.44
2022-08-07T20:00:57.811Z,25.35
2022-08-07T20:04:01.496Z,25.28
2022-08-07T20:07:09.062Z,25.29
2022-08-07T20:10:35.534Z,25.17
2022-08-07T20:13:49.901Z,25.23
2022-08-07T20:16:58.595Z,25.17
2022-08-07T20:20:05.393Z,25.08
2022-08-07T20:23:22.908Z,24.96
2022-08-07T20:26:45.262Z,24.90
2022-08-07T20:30:00.059Z,24.79
2022-08-07T20:33:09.132Z,24.74
2022-08-07T20:36:32.250Z,24.71
2022-08-07T20:40:03.035Z,24.55
2022-08-07T20:43:03.623Z,24.35
2022-08-07T20:46:27.635Z,24.35
2022-08-07T20:49:59.782Z,24.30
2022-08-07T20:53:05.733Z,24.30
2022-08-07T20:56:10.523Z,24.13
2022-08-07T21:00:04.484Z,24.06
2022-08-07T21:02:58.742Z,23.99
2022-08-07T21:06:21.823Z,23.83
2022-08-07T21:09:52.845Z,23.84
2022-08-07T21:13:05.098Z,23.83
2022-08-07T21:16:12.381Z,23.60
2022-08-07T21:19:19.421Z,23.83
2022-08-07T21:22:28.262Z,23.68
2022-08-07T21:25:50.144Z,23.73
2022-08-07T21:29:07.174Z,23.68
2022-08-07T21:32:47.368Z,23.58
2022-08-07T21:36:31.493Z,23.43
2022-08-07T21:40:13.787Z,23.48
2022-08-07T21:43:24.783Z,23.43
2022-08-07T21:47:04.723Z,23.48
2022-08-07T21:50:39.228Z,23.42
2022-08-07T21:53:53.005Z,23.38
2022-08-07T21:57:31.155Z,23.39
2022-08-07T22:00:50.121Z,23.37
2022-08-07T22:04:07.505Z,23.12
2022-08-07T22:07:20.493Z,23.07
2022-08-07T22:10:33.726Z,23.10
2022-08-07T22:13:51.927Z,23.06
2022-08-07T22:17:00.741Z,23.04
2022-08-07T22:20:22.707Z,23.02
2022-08-07T22:23:40.406Z,22.88
2022-08-07T22:27:51.192Z,22.72
2022-08-07T22:31:06.790Z,22.74
2022-08-07T22:34:15.517Z,22.70
2022-08-07T22:38:01.671Z,22.62
2022-08-07T22:41:14.265Z,22.62
2022-08-07T22:44:26.111Z,22.65
2022-08-07T22:47:38.262Z,22.66
2022-08-07T22:50:54.076Z,22.66
2022-08-07T22:54:35.682Z,22.46
2022-08-07T22:57:54.592Z,22.46
2022-08-07T23:01:49.614Z,22.28
2022-08-07T23:06:15.257Z,22.43
2022-08-07T23:10:06.338Z,22.36
2022-08-07T23:13:15.365Z,22.34
2022-08-07T23:17:05.533Z,22.36
2022-08-07T23:20:51.258Z,22.37
2022-08-07T23:24:18.500Z,22.48
2022-08-07T23:27:34.109Z,22.44
2022-08-07T23:31:06.586Z,22.51
2022-08-07T23:34:37.380Z,22.43
2022-08-07T23:38:19.493Z,22.41
2022-08-07T23:42:04.546Z,22.38
2022-08-07T23:45:33.006Z,22.11
2022-08-07T23:48:56.253Z,22.10
2022-08-07T23:53:06.431Z,22.07
2022-08-07T23:55:55.768Z,22.04
